Pechenga, Russia
Current Conditions -  °F | °C
As of 11:20 PM on Wednesday 28 Jan 2015 (Local Time) from ENKR Reporting Station
Light Snow Light Snow  
Wind Chill:   Ceiling: Unl
Heat Index: 23°   Visibility: 4mi
Dew Point: 18°   Wind: 20mph
Humidity: 80%   Direction: 80°E
Pressure: 29.21"   Gusts: NA
Location:  69.55°N, 31.23°E
Report Text: ENKR 282020Z 08017KT 6000 -SN FEW021 SCT092 M05/M08 Q0989 RMK WIND 731FT 08028KT
Loading
Personal Weather Stations






























Interactive Weather Map New forecast layout! Learn more

10-Day Weather Forecast

Advertisements
Track Severe Weather on mobile